createdAt,value
2019-01-10T00:01:18.426Z,228.57
2019-01-10T00:03:59.759Z,262.47
2019-01-10T00:06:40.229Z,323.53
2019-01-10T00:09:20.911Z,294.63
2019-01-10T00:12:02.068Z,252.13
2019-01-10T00:14:42.228Z,234.00
2019-01-10T00:17:23.059Z,225.93
2019-01-10T00:20:03.895Z,227.60
2019-01-10T00:22:44.938Z,227.80
2019-01-10T00:25:25.587Z,229.70
2019-01-10T00:28:06.163Z,227.33
2019-01-10T00:30:46.753Z,232.17
2019-01-10T00:33:27.684Z,228.83
2019-01-10T00:36:08.263Z,238.17
2019-01-10T00:38:49.145Z,224.70
2019-01-10T00:41:30.303Z,219.67
2019-01-10T00:44:11.184Z,224.73
2019-01-10T00:46:51.954Z,226.17
2019-01-10T00:49:32.544Z,310.60
2019-01-10T00:52:12.990Z,314.57
2019-01-10T00:54:53.850Z,318.90
2019-01-10T00:57:34.705Z,246.37
2019-01-10T01:00:16.322Z,248.53
2019-01-10T01:02:57.222Z,233.40
2019-01-10T01:05:37.939Z,251.03
2019-01-10T01:08:18.411Z,246.97
2019-01-10T01:10:59.678Z,248.13
2019-01-10T01:13:40.252Z,242.60
2019-01-10T01:16:22.135Z,251.77
2019-01-10T01:19:02.502Z,252.60
2019-01-10T01:21:43.674Z,257.97
2019-01-10T01:24:24.386Z,254.37
2019-01-10T01:27:05.145Z,247.07
2019-01-10T01:29:46.098Z,245.40
2019-01-10T01:32:26.495Z,231.73
2019-01-10T01:35:07.904Z,224.77
2019-01-10T01:37:48.522Z,240.83
2019-01-10T01:40:29.584Z,245.20
2019-01-10T01:43:09.863Z,252.53
2019-01-10T01:45:50.494Z,247.53
2019-01-10T01:48:31.366Z,244.93
2019-01-10T01:51:12.389Z,252.67
2019-01-10T01:53:53.103Z,255.33
2019-01-10T01:56:33.905Z,246.80
2019-01-10T01:59:14.425Z,232.37
2019-01-10T02:01:55.324Z,229.80
2019-01-10T02:04:36.285Z,243.20
2019-01-10T02:07:17.064Z,257.63
2019-01-10T02:09:57.820Z,260.23
2019-01-10T02:12:39.076Z,278.00
2019-01-10T02:15:20.066Z,275.70
2019-01-10T02:18:01.619Z,275.03
2019-01-10T02:20:42.075Z,264.10
2019-01-10T02:23:22.985Z,261.87
2019-01-10T02:26:03.557Z,270.47
2019-01-10T02:28:44.357Z,273.33
2019-01-10T02:31:25.507Z,271.60
2019-01-10T02:34:06.747Z,264.70
2019-01-10T02:36:47.157Z,263.37
2019-01-10T02:39:28.119Z,258.80
2019-01-10T02:42:09.186Z,258.17
2019-01-10T02:44:50.268Z,235.83
2019-01-10T02:47:31.145Z,233.90
2019-01-10T02:50:12.125Z,204.13
2019-01-10T02:52:52.901Z,189.83
2019-01-10T02:55:33.791Z,186.53
2019-01-10T02:58:14.588Z,182.53
2019-01-10T03:00:54.894Z,171.20
2019-01-10T03:03:35.777Z,161.37
2019-01-10T03:06:16.265Z,158.20
2019-01-10T03:08:57.113Z,150.53
2019-01-10T03:11:37.323Z,144.90
2019-01-10T03:14:18.584Z,136.90
2019-01-10T03:16:59.725Z,136.87
2019-01-10T03:19:40.353Z,130.03
2019-01-10T03:22:21.141Z,128.30
2019-01-10T03:25:02.363Z,126.73
2019-01-10T03:27:42.477Z,125.20
2019-01-10T03:30:24.023Z,128.03
2019-01-10T03:33:05.036Z,124.10
2019-01-10T03:35:46.269Z,122.77
2019-01-10T03:38:26.398Z,122.57
2019-01-10T03:41:07.061Z,116.20
2019-01-10T03:43:47.938Z,113.17
2019-01-10T03:46:29.450Z,110.83
2019-01-10T03:49:10.899Z,107.50
2019-01-10T03:51:52.666Z,106.57
2019-01-10T03:54:33.638Z,119.17
2019-01-10T03:57:14.557Z,113.67
2019-01-10T03:59:55.310Z,102.23
2019-01-10T04:02:36.392Z,102.50
2019-01-10T04:05:17.191Z,99.67
2019-01-10T04:07:58.207Z,96.70
2019-01-10T04:10:38.879Z,98.27
2019-01-10T04:13:19.722Z,97.03
2019-01-10T04:16:00.110Z,92.03
2019-01-10T04:18:40.866Z,92.13
2019-01-10T04:21:21.069Z,89.97
2019-01-10T04:24:02.105Z,88.20
2019-01-10T04:26:42.946Z,91.27
2019-01-10T04:29:23.961Z,85.83
2019-01-10T04:32:04.837Z,87.33
2019-01-10T04:34:46.130Z,85.80
2019-01-10T04:37:27.177Z,84.43
2019-01-10T04:40:08.493Z,84.47
2019-01-10T04:42:49.468Z,81.30
2019-01-10T04:45:29.866Z,79.37
2019-01-10T04:48:10.984Z,81.40
2019-01-10T04:50:51.552Z,77.17
2019-01-10T04:53:32.565Z,70.03
2019-01-10T04:56:13.481Z,74.00
2019-01-10T04:58:54.263Z,74.33
2019-01-10T05:01:34.503Z,77.30
2019-01-10T05:04:15.192Z,81.30
2019-01-10T05:06:55.069Z,81.77
2019-01-10T05:09:35.383Z,79.67
2019-01-10T05:12:16.141Z,83.97
2019-01-10T05:14:56.633Z,85.13
2019-01-10T05:17:37.794Z,83.20
2019-01-10T05:20:17.841Z,86.23
2019-01-10T05:22:57.997Z,192.33
2019-01-10T05:25:38.745Z,173.20
2019-01-10T05:28:19.321Z,105.17
2019-01-10T05:30:59.783Z,307.87
2019-01-10T05:33:40.112Z,186.83
2019-01-10T05:36:20.835Z,104.83
2019-01-10T05:39:01.152Z,97.83
2019-01-10T05:41:41.269Z,98.40
2019-01-10T05:44:26.592Z,107.43
2019-01-10T05:47:02.462Z,90.33
2019-01-10T05:49:42.599Z,89.57
2019-01-10T05:52:22.654Z,87.10
2019-01-10T05:55:03.224Z,88.60
2019-01-10T05:57:43.266Z,87.60
2019-01-10T06:00:23.463Z,113.87
2019-01-10T06:03:03.592Z,93.17
2019-01-10T06:05:44.084Z,110.70
2019-01-10T06:08:25.218Z,90.17
2019-01-10T06:11:05.808Z,86.73
2019-01-10T06:13:46.745Z,91.33
2019-01-10T06:16:28.512Z,87.43
2019-01-10T06:19:09.411Z,89.03
2019-01-10T06:21:50.743Z,84.13
2019-01-10T06:24:31.794Z,86.03
2019-01-10T06:27:12.676Z,83.23
2019-01-10T06:29:53.148Z,88.17
2019-01-10T06:32:33.671Z,82.57
2019-01-10T06:38:00.993Z,87.07
2019-01-10T06:40:42.265Z,85.00
2019-01-10T06:43:23.314Z,90.77
2019-01-10T06:46:04.200Z,86.97
2019-01-10T06:48:44.587Z,89.53
2019-01-10T06:51:25.285Z,92.93
2019-01-10T06:54:05.868Z,92.03
2019-01-10T06:56:46.755Z,92.93
2019-01-10T06:59:27.543Z,95.30
2019-01-10T07:02:12.205Z,91.83
2019-01-10T07:04:53.346Z,100.30
2019-01-10T07:07:33.916Z,98.57
2019-01-10T07:10:14.788Z,96.30
2019-01-10T07:12:55.427Z,89.93
2019-01-10T07:15:35.719Z,94.37
2019-01-10T07:18:16.559Z,92.10
2019-01-10T07:20:57.363Z,100.43
2019-01-10T07:23:37.907Z,92.67
2019-01-10T07:26:18.361Z,100.53
2019-01-10T07:28:58.663Z,100.83
2019-01-10T07:31:38.991Z,97.40
2019-01-10T07:34:19.474Z,100.90
2019-01-10T07:36:59.713Z,98.87
2019-01-10T07:39:40.276Z,106.87
2019-01-10T07:42:20.718Z,95.37
2019-01-10T07:45:02.766Z,101.03
2019-01-10T07:47:43.073Z,100.67
2019-01-10T07:50:23.753Z,101.70
2019-01-10T07:53:04.230Z,94.53
2019-01-10T07:55:44.426Z,100.00
2019-01-10T07:58:25.352Z,102.20
2019-01-10T08:01:05.711Z,104.93
2019-01-10T08:03:46.467Z,99.30
2019-01-10T08:06:26.834Z,104.27
2019-01-10T08:09:08.353Z,108.50
2019-01-10T08:11:48.548Z,104.60
2019-01-10T08:14:28.908Z,109.33
2019-01-10T08:17:15.929Z,106.80
2019-01-10T08:19:51.704Z,107.47
2019-01-10T08:22:32.988Z,110.37
2019-01-10T08:25:13.347Z,109.03
2019-01-10T08:27:53.972Z,106.30
2019-01-10T08:30:34.984Z,99.87
2019-01-10T08:33:15.963Z,107.47
2019-01-10T08:35:56.826Z,107.37
2019-01-10T08:38:37.787Z,101.23
2019-01-10T08:41:18.754Z,109.27
2019-01-10T08:44:00.023Z,109.37
2019-01-10T08:46:40.792Z,106.37
2019-01-10T08:49:21.944Z,100.37
2019-01-10T08:52:02.985Z,106.97
2019-01-10T08:54:43.335Z,105.30
2019-01-10T08:57:24.343Z,105.03
2019-01-10T09:00:05.585Z,105.97
2019-01-10T09:02:47.065Z,98.33
2019-01-10T09:05:27.735Z,97.80
2019-01-10T09:08:08.732Z,99.30
2019-01-10T09:10:49.946Z,108.00
2019-01-10T09:13:31.234Z,102.43
2019-01-10T09:16:12.144Z,107.03
2019-01-10T09:18:53.233Z,106.63
2019-01-10T09:21:33.787Z,101.93
2019-01-10T09:24:14.584Z,106.70
2019-01-10T09:26:55.707Z,106.33
2019-01-10T09:29:36.705Z,114.40
2019-01-10T09:32:17.797Z,109.50
2019-01-10T09:34:58.905Z,114.57
2019-01-10T09:37:40.198Z,116.47
2019-01-10T09:40:21.784Z,108.53
2019-01-10T09:43:03.114Z,109.53
2019-01-10T09:45:44.026Z,112.60
2019-01-10T09:48:25.638Z,107.03
2019-01-10T09:51:06.134Z,108.07
2019-01-10T09:53:47.313Z,104.20
2019-01-10T09:56:28.571Z,105.53
2019-01-10T09:59:09.743Z,103.10
2019-01-10T10:01:51.390Z,106.63
2019-01-10T10:04:32.426Z,101.37
2019-01-10T10:07:13.741Z,99.87
2019-01-10T10:09:54.588Z,105.33
2019-01-10T10:12:35.701Z,101.97
2019-01-10T10:15:16.904Z,101.20
2019-01-10T10:17:57.793Z,105.47
2019-01-10T10:20:38.673Z,110.80
2019-01-10T10:23:26.703Z,109.00
2019-01-10T10:26:01.387Z,108.03
2019-01-10T10:28:42.909Z,100.83
2019-01-10T10:31:24.186Z,102.53
2019-01-10T10:34:05.465Z,100.17
2019-01-10T10:36:46.755Z,97.00
2019-01-10T10:39:27.711Z,100.47
2019-01-10T10:42:09.186Z,103.00
2019-01-10T10:44:50.022Z,99.27
2019-01-10T10:47:30.824Z,96.40
2019-01-10T10:50:11.746Z,92.20
2019-01-10T10:52:52.697Z,99.07
2019-01-10T10:55:33.186Z,94.90
2019-01-10T10:58:14.349Z,98.00
2019-01-10T11:00:55.437Z,98.57
2019-01-10T11:03:36.429Z,94.57
2019-01-10T11:06:17.354Z,94.70
2019-01-10T11:08:58.597Z,96.63
2019-01-10T11:11:39.386Z,100.17
2019-01-10T11:14:20.587Z,100.77
2019-01-10T11:17:01.802Z,102.93
2019-01-10T11:19:43.065Z,102.40
2019-01-10T11:22:24.065Z,102.47
2019-01-10T11:25:04.824Z,104.43
2019-01-10T11:27:45.794Z,104.33
2019-01-10T11:30:27.235Z,103.10
2019-01-10T11:33:08.260Z,106.30
2019-01-10T11:35:48.825Z,107.70
2019-01-10T11:38:29.914Z,109.13
2019-01-10T11:41:11.384Z,109.17
2019-01-10T11:43:52.296Z,111.97
2019-01-10T11:46:33.470Z,109.03
2019-01-10T11:49:14.042Z,113.60
2019-01-10T11:51:54.549Z,111.73
2019-01-10T11:54:35.459Z,116.53
2019-01-10T11:57:16.831Z,118.37
2019-01-10T11:59:57.597Z,118.17
2019-01-10T12:02:38.477Z,116.93
2019-01-10T12:05:18.775Z,121.50
2019-01-10T12:08:00.357Z,119.00
2019-01-10T12:10:41.266Z,127.67
2019-01-10T12:13:21.948Z,120.10
2019-01-10T12:16:02.920Z,123.17
2019-01-10T12:18:43.703Z,123.47
2019-01-10T12:21:24.864Z,132.17
2019-01-10T12:24:05.192Z,143.77
2019-01-10T12:26:45.506Z,126.90
2019-01-10T12:29:25.994Z,123.40
2019-01-10T12:32:06.554Z,129.57
2019-01-10T12:34:47.382Z,128.43
2019-01-10T12:37:27.884Z,133.17
2019-01-10T12:40:08.142Z,136.70
2019-01-10T12:42:48.224Z,131.97
2019-01-10T12:45:28.635Z,130.87
2019-01-10T12:48:11.257Z,136.73
2019-01-10T12:50:51.301Z,137.73
2019-01-10T12:53:31.624Z,145.37
2019-01-10T12:56:11.870Z,149.80
2019-01-10T12:58:51.986Z,149.00
2019-01-10T13:01:32.713Z,156.33
2019-01-10T13:04:13.153Z,146.57
2019-01-10T13:06:53.196Z,155.53
2019-01-10T13:09:33.574Z,156.80
2019-01-10T13:12:13.828Z,162.23
2019-01-10T13:14:55.069Z,154.50
2019-01-10T13:17:35.162Z,155.53
2019-01-10T13:20:16.309Z,158.90
2019-01-10T13:22:56.428Z,162.07
2019-01-10T13:25:37.952Z,162.93
2019-01-10T13:28:18.749Z,171.00
2019-01-10T13:30:59.008Z,167.87
2019-01-10T13:33:42.229Z,182.97
2019-01-10T13:36:22.551Z,183.73
2019-01-10T13:41:52.744Z,184.30
2019-01-10T13:44:32.877Z,185.80
2019-01-10T13:47:13.018Z,189.80
2019-01-10T13:49:53.672Z,185.73
2019-01-10T13:52:34.028Z,179.57
2019-01-10T13:55:14.400Z,178.47
2019-01-10T13:57:55.023Z,189.67
2019-01-10T14:00:37.270Z,208.53
2019-01-10T14:03:17.864Z,206.00
2019-01-10T14:05:58.187Z,208.27
2019-01-10T14:08:38.313Z,199.40
2019-01-10T14:11:19.237Z,197.50
2019-01-10T14:13:59.594Z,207.27
2019-01-10T14:16:39.716Z,200.70
2019-01-10T14:19:22.234Z,202.27
2019-01-10T14:22:07.505Z,199.80
2019-01-10T14:24:50.125Z,216.70
2019-01-10T14:27:30.713Z,217.37
2019-01-10T14:30:12.466Z,224.00
2019-01-10T14:32:52.827Z,223.77
2019-01-10T14:35:32.834Z,234.53
2019-01-10T14:38:12.671Z,238.57
2019-01-10T14:40:53.095Z,243.53
2019-01-10T14:43:33.519Z,294.43
2019-01-10T14:46:13.750Z,298.83
2019-01-10T14:48:53.992Z,272.20
2019-01-10T14:51:34.033Z,254.87
2019-01-10T14:54:16.079Z,269.13
2019-01-10T14:59:33.554Z,255.83
2019-01-10T15:04:55.634Z,259.97
2019-01-10T15:07:25.391Z,233.63
2019-01-10T15:09:54.601Z,237.43
2019-01-10T15:12:28.622Z,242.33
2019-01-10T15:15:01.249Z,251.53
2019-01-10T15:17:32.469Z,263.90
2019-01-10T15:22:50.040Z,305.13
2019-01-10T15:25:22.837Z,291.10
2019-01-10T15:27:55.089Z,281.63
2019-01-10T15:30:25.909Z,269.97
2019-01-10T15:32:58.505Z,280.20
2019-01-10T16:01:07.787Z,222.70
2019-01-10T16:18:52.156Z,245.90
2019-01-10T16:54:32.351Z,233.20
2019-01-10T17:02:07.217Z,228.53
2019-01-10T17:04:38.824Z,229.60
2019-01-10T17:37:40.195Z,220.87
2019-01-10T18:51:22.354Z,223.93
